Time;durP1;ratioP1;P1;durP2;ratioP2;P2;SDS_P1;SDS_P2;PMS_P1;PMS_P2;Temp;Humidity;BMP_temperature;BMP_pressure;BME280_temperature;BME280_humidity;BME280_pressure;Samples;Min_cycle;Max_cycle;Signal;HPM_P1;HPM_P2
2022/05/30 05:02:11;;;;;;;7.45;4.43;;;7.40;99.90;;;;;;6083458;23;20021;-77
2022/05/30 05:04:39;;;;;;;10.38;5.03;;;7.50;99.90;;;;;;6135082;23;20005;-78
2022/05/30 05:07:05;;;;;;;8.53;4.33;;;7.60;99.90;;;;;;6137405;23;20005;-78
2022/05/30 05:09:45;;;;;;;7.90;4.25;;;7.70;99.90;;;;;;6136625;23;20005;-78
2022/05/30 05:12:36;;;;;;;10.05;4.20;;;7.70;99.90;;;;;;6143371;23;20009;-79
2022/05/30 05:15:21;;;;;;;6.47;4.20;;;7.80;99.90;;;;;;6144939;23;20050;-78
2022/05/30 05:18:25;;;;;;;10.25;4.50;;;7.90;99.90;;;;;;6167174;23;20013;-79
2022/05/30 05:20:51;;;;;;;11.23;4.43;;;8.00;99.90;;;;;;6168684;23;20068;-79
2022/05/30 05:41:52;;;;;;;19.10;5.25;;;8.80;99.90;;;;;;6109568;23;20080;-78
2022/05/30 05:44:18;;;;;;;12.20;4.82;;;8.90;99.90;;;;;;6165014;23;20168;-78
2022/05/30 05:46:45;;;;;;;8.52;4.63;;;9.00;99.90;;;;;;6138311;23;20020;-78
2022/05/30 05:49:37;;;;;;;9.02;4.57;;;9.00;99.90;;;;;;6115320;23;20048;-78
2022/05/30 05:52:40;;;;;;;8.60;5.00;;;9.20;99.90;;;;;;6165281;23;20016;-78
2022/05/30 05:55:14;;;;;;;10.30;5.07;;;9.30;99.90;;;;;;6139399;23;20001;-78
2022/05/30 06:01:35;;;;;;;9.13;5.25;;;9.30;99.90;;;;;;6163091;23;20256;-80
2022/05/30 06:04:06;;;;;;;10.68;5.32;;;9.50;99.90;;;;;;6138791;23;20191;-80
2022/05/30 06:06:50;;;;;;;8.65;5.60;;;9.50;99.90;;;;;;6165602;23;20040;-78
2022/05/30 06:09:29;;;;;;;12.05;5.43;;;9.50;99.80;;;;;;6141554;23;20002;-79
2022/05/30 06:11:58;;;;;;;8.18;5.07;;;9.70;99.70;;;;;;6141476;23;20001;-79
2022/05/30 06:14:26;;;;;;;8.65;5.45;;;9.60;99.30;;;;;;6145942;23;20016;-79
2022/05/30 06:53:16;;;;;;;8.50;4.70;;;11.60;94.00;;;;;;6065620;23;20013;-78
2022/05/30 06:55:50;;;;;;;9.13;5.10;;;11.70;93.30;;;;;;6106872;23;20006;-78
2022/05/30 07:06:34;;;;;;;6.00;3.60;;;12.10;92.60;;;;;;6130544;23;20327;-79
2022/05/30 07:09:09;;;;;;;8.98;4.03;;;12.20;91.80;;;;;;6146590;23;20286;-79
2022/05/30 07:11:39;;;;;;;7.57;4.22;;;12.40;91.90;;;;;;6133724;23;20009;-78
2022/05/30 07:18:00;;;;;;;5.78;3.53;;;12.50;91.60;;;;;;6159473;23;20207;-77
2022/05/30 07:28:30;;;;;;;8.95;2.90;;;13.10;88.50;;;;;;6028818;23;20799;-78
2022/05/30 08:43:38;;;;;;;3.95;1.60;;;15.50;75.20;;;;;;6089998;23;20350;-77
2022/05/30 08:46:32;;;;;;;3.10;1.17;;;15.70;73.10;;;;;;6104561;23;20026;-77
2022/05/30 09:47:32;;;;;;;3.25;1.00;;;18.30;62.40;;;;;;6123742;23;20060;-77
2022/05/30 09:50:43;;;;;;;4.53;1.10;;;18.30;62.20;;;;;;6115256;23;20006;-78
2022/05/30 10:05:42;;;;;;;3.13;0.75;;;18.40;58.90;;;;;;6072827;23;20026;-79
2022/05/30 10:12:01;;;;;;;3.80;0.95;;;18.70;58.40;;;;;;6165503;23;20008;-78
2022/05/30 10:14:34;;;;;;;3.42;0.70;;;18.80;58.40;;;;;;6141189;23;20009;-77
2022/05/30 10:17:31;;;;;;;2.80;0.80;;;19.10;58.70;;;;;;6140038;23;20017;-78
2022/05/30 10:20:11;;;;;;;2.85;0.80;;;19.30;57.60;;;;;;6137504;23;20290;-79
2022/05/30 10:30:46;;;;;;;2.22;0.80;;;19.90;53.60;;;;;;6052430;23;20296;-78
2022/05/30 10:34:00;;;;;;;2.35;0.60;;;19.90;53.10;;;;;;6134655;23;20010;-78
2022/05/30 10:44:13;;;;;;;1.00;0.40;;;19.10;51.10;;;;;;6162353;23;19915;-77
2022/05/30 10:46:48;;;;;;;2.25;0.82;;;19.50;54.00;;;;;;6134619;23;20246;-77
2022/05/30 10:49:20;;;;;;;3.03;0.50;;;19.90;52.30;;;;;;6136633;23;20013;-79
2022/05/30 10:52:14;;;;;;;4.70;0.63;;;20.10;51.80;;;;;;6161954;23;20006;-79
2022/05/30 10:55:11;;;;;;;2.15;0.50;;;20.80;51.20;;;;;;6135785;23;20009;-79
2022/05/30 10:57:45;;;;;;;3.03;0.60;;;21.20;51.40;;;;;;6135963;23;20036;-79
2022/05/30 11:00:18;;;;;;;1.73;0.60;;;21.50;52.10;;;;;;6111235;23;20301;-78
2022/05/30 11:03:19;;;;;;;2.95;0.77;;;21.80;51.90;;;;;;6135723;23;20017;-79
2022/05/30 11:05:51;;;;;;;2.42;0.88;;;21.50;51.90;;;;;;6166636;23;20063;-75
2022/05/30 12:27:59;;;;;;;3.30;0.60;;;32.80;38.00;;;;;;6190938;23;20000;-77
2022/05/30 12:30:56;;;;;;;2.00;0.57;;;29.70;39.50;;;;;;6188591;23;20291;-77
2022/05/30 12:33:28;;;;;;;4.18;0.73;;;27.50;41.70;;;;;;6190740;23;20013;-77
2022/05/30 12:36:16;;;;;;;2.50;0.60;;;25.90;42.30;;;;;;6190350;23;20001;-77
2022/05/30 12:39:32;;;;;;;2.58;0.70;;;26.00;42.50;;;;;;6190914;23;20048;-77
2022/05/30 12:42:30;;;;;;;2.58;0.70;;;25.50;42.70;;;;;;6190149;23;20001;-80
2022/05/30 12:45:57;;;;;;;2.03;0.50;;;24.70;43.40;;;;;;6163932;23;20006;-78
2022/05/30 12:49:02;;;;;;;3.55;0.70;;;24.60;43.60;;;;;;6098928;23;20275;-78
2022/05/30 12:52:02;;;;;;;1.80;0.68;;;25.30;43.50;;;;;;6099175;23;20546;-78
2022/05/30 12:54:54;;;;;;;2.08;0.60;;;28.40;41.70;;;;;;6098992;23;20013;-78
2022/05/30 12:57:34;;;;;;;2.80;0.60;;;32.10;39.70;;;;;;6098822;23;20010;-77
2022/05/30 13:00:32;;;;;;;2.20;0.50;;;34.70;38.90;;;;;;6098290;23;20228;-77
2022/05/30 13:03:29;;;;;;;2.70;0.60;;;35.00;36.50;;;;;;6105575;23;20018;-77
2022/05/30 13:06:11;;;;;;;2.20;0.70;;;31.30;37.60;;;;;;6127529;23;20022;-77
2022/05/30 13:09:33;;;;;;;3.33;0.70;;;30.30;39.30;;;;;;6128370;23;20005;-78
2022/05/30 13:12:11;;;;;;;2.83;0.75;;;31.70;37.70;;;;;;6102882;23;20125;-76
2022/05/30 13:15:00;;;;;;;3.47;0.60;;;31.90;37.40;;;;;;6103886;23;20192;-78
2022/05/30 13:17:46;;;;;;;1.88;0.60;;;30.70;37.50;;;;;;6156555;23;20080;-79
2022/05/30 13:20:17;;;;;;;2.20;0.70;;;30.40;38.20;;;;;;6250038;23;20184;-79
2022/05/30 13:22:57;;;;;;;5.75;0.90;;;30.00;37.60;;;;;;6250690;23;20004;-77
2022/05/30 13:25:39;;;;;;;6.50;1.00;;;29.60;38.60;;;;;;6250707;23;20011;-77
2022/05/30 13:28:10;;;;;;;1.98;0.90;;;28.60;39.60;;;;;;6249565;23;20000;-78
2022/05/30 13:30:37;;;;;;;2.38;0.85;;;27.80;39.60;;;;;;6223491;23;20059;-77
2022/05/30 13:33:59;;;;;;;2.33;0.70;;;27.00;40.50;;;;;;6249519;23;20004;-80
2022/05/30 13:36:30;;;;;;;2.90;0.70;;;26.60;40.30;;;;;;6250518;23;19996;-79
2022/05/30 13:46:26;;;;;;;3.83;0.80;;;29.40;39.20;;;;;;6152121;23;20031;-77
2022/05/30 13:48:52;;;;;;;6.93;0.80;;;28.10;40.70;;;;;;6192535;23;20051;-78
2022/05/30 13:51:40;;;;;;;3.33;0.70;;;26.80;42.20;;;;;;6192693;23;19989;-78
2022/05/30 13:54:58;;;;;;;3.38;0.65;;;25.90;42.50;;;;;;6192149;23;20036;-79
2022/05/30 13:57:33;;;;;;;2.22;0.60;;;26.70;42.00;;;;;;6192600;23;20009;-78
2022/05/30 14:00:33;;;;;;;1.50;0.60;;;30.40;39.60;;;;;;6165000;23;20001;-79
2022/05/30 14:02:59;;;;;;;1.58;0.68;;;33.10;37.50;;;;;;6135830;23;20017;-79
2022/05/30 14:05:42;;;;;;;2.60;0.57;;;34.80;36.20;;;;;;6163674;23;20056;-77
2022/05/30 14:08:59;;;;;;;3.55;0.90;;;37.10;35.50;;;;;;6111773;23;20013;-77
2022/05/30 14:11:37;;;;;;;1.52;0.60;;;38.40;35.30;;;;;;6162449;23;20107;-78
2022/05/30 14:14:04;;;;;;;2.65;0.70;;;40.00;34.80;;;;;;6161981;23;20001;-77
2022/05/30 14:16:56;;;;;;;1.40;0.50;;;39.90;34.20;;;;;;6161694;23;20014;-78
2022/05/30 14:19:56;;;;;;;2.20;0.57;;;40.30;33.80;;;;;;6136329;23;20010;-78
2022/05/30 14:22:25;;;;;;;3.22;0.65;;;41.20;33.30;;;;;;6162645;23;20011;-78
2022/05/30 14:24:59;;;;;;;2.58;0.70;;;42.20;33.50;;;;;;6137320;23;20013;-79
2022/05/30 14:27:28;;;;;;;2.45;0.60;;;41.80;32.30;;;;;;6166691;23;20009;-79
2022/05/30 14:30:07;;;;;;;2.20;0.60;;;41.10;32.30;;;;;;6161567;23;20061;-79
2022/05/30 14:32:36;;;;;;;1.40;0.52;;;42.30;32.50;;;;;;6161832;23;20052;-79
2022/05/30 14:35:13;;;;;;;1.75;0.70;;;40.70;33.00;;;;;;6162658;23;20057;-78
2022/05/30 14:38:26;;;;;;;1.92;0.90;;;40.20;32.20;;;;;;6160978;23;20048;-79
2022/05/30 14:41:02;;;;;;;2.30;0.90;;;38.10;32.30;;;;;;6135690;23;20042;-79
2022/05/30 14:43:54;;;;;;;1.77;0.80;;;37.40;33.70;;;;;;6134957;23;20087;-80
2022/05/30 14:46:41;;;;;;;1.77;0.60;;;36.20;34.00;;;;;;6182280;23;20025;-78
2022/05/30 14:49:44;;;;;;;1.48;0.70;;;35.30;34.70;;;;;;6165268;23;19997;-79
2022/05/30 14:52:33;;;;;;;2.25;0.88;;;32.30;35.10;;;;;;6181194;23;19997;-78
2022/05/30 14:55:29;;;;;;;2.53;0.60;;;31.50;36.30;;;;;;6191088;23;20009;-79
2022/05/30 14:58:05;;;;;;;3.53;1.10;;;29.40;36.80;;;;;;6191652;23;20001;-78
2022/05/30 15:00:57;;;;;;;1.90;0.52;;;28.20;38.10;;;;;;6164569;23;20009;-78
2022/05/30 15:07:54;;;;;;;2.05;0.75;;;33.00;36.80;;;;;;6190976;23;20027;-78
2022/05/30 15:10:24;;;;;;;2.60;0.80;;;33.10;35.40;;;;;;6055388;23;20032;-80
2022/05/30 15:12:49;;;;;;;2.85;0.65;;;33.50;35.30;;;;;;6190074;23;20005;-80
2022/05/30 15:15:24;;;;;;;1.88;0.80;;;35.60;36.10;;;;;;6190682;23;20073;-78
2022/05/30 15:28:49;;;;;;;4.15;0.70;;;40.00;33.40;;;;;;6191101;23;20063;-78
2022/05/30 15:31:27;;;;;;;1.65;0.40;;;41.70;32.80;;;;;;6189647;23;20017;-78
2022/05/30 15:33:56;;;;;;;2.65;0.77;;;41.20;32.10;;;;;;6164523;23;20012;-77
2022/05/30 15:36:23;;;;;;;3.28;0.70;;;41.20;32.20;;;;;;6164254;23;19989;-78
2022/05/30 15:38:50;;;;;;;2.60;0.55;;;38.80;32.60;;;;;;6164362;23;20001;-77
2022/05/30 15:41:17;;;;;;;3.80;0.70;;;36.10;33.10;;;;;;6163524;23;20056;-78
2022/05/30 15:43:43;;;;;;;3.05;0.70;;;34.80;34.20;;;;;;6190935;23;20077;-79
2022/05/30 15:46:13;;;;;;;2.55;0.63;;;35.10;33.90;;;;;;6188769;23;20214;-81
2022/05/30 15:48:40;;;;;;;2.05;0.63;;;36.60;33.90;;;;;;6191112;23;20005;-79
2022/05/30 15:51:08;;;;;;;2.03;0.60;;;38.60;33.40;;;;;;6163271;23;20005;-78
2022/05/30 15:59:10;;;;;;;3.45;0.60;;;39.20;32.30;;;;;;6190118;23;20027;-77
2022/05/30 16:02:07;;;;;;;3.13;0.70;;;39.90;32.70;;;;;;6190059;23;20328;-78
2022/05/30 16:08:09;;;;;;;2.60;0.60;;;40.10;32.50;;;;;;6100340;23;20013;-79
2022/05/30 16:10:50;;;;;;;2.40;0.82;;;40.10;32.40;;;;;;6099545;23;20033;-77
2022/05/30 16:13:35;;;;;;;3.25;0.70;;;40.00;32.70;;;;;;6099571;23;20010;-78
2022/05/30 16:16:20;;;;;;;1.70;0.57;;;40.20;32.70;;;;;;6083122;23;20026;-78
2022/05/30 16:19:07;;;;;;;3.25;0.60;;;40.10;32.30;;;;;;6091921;23;20025;-77
2022/05/30 16:21:33;;;;;;;4.13;0.70;;;40.00;32.30;;;;;;6100203;23;20010;-79
2022/05/30 16:33:34;;;;;;;3.50;0.50;;;39.70;32.00;;;;;;6118077;23;20029;-78
2022/05/30 16:36:36;;;;;;;2.00;0.60;;;38.90;32.60;;;;;;6220775;23;20039;-80
2022/05/30 16:39:04;;;;;;;3.50;0.98;;;38.40;33.10;;;;;;6221578;23;20003;-76
2022/05/30 16:41:30;;;;;;;2.22;0.80;;;38.60;33.30;;;;;;6195818;23;20345;-78
2022/05/30 16:43:56;;;;;;;3.10;0.90;;;38.10;33.50;;;;;;6222102;23;20055;-79
2022/05/30 16:46:22;;;;;;;1.48;0.50;;;37.60;33.50;;;;;;6221138;23;20013;-78
2022/05/30 16:48:48;;;;;;;3.88;1.50;;;36.90;33.50;;;;;;6222049;23;19984;-79
2022/05/30 16:51:16;;;;;;;2.70;0.90;;;35.70;34.10;;;;;;6221533;23;20000;-79
2022/05/30 16:53:42;;;;;;;2.95;0.80;;;33.90;34.50;;;;;;6222019;23;20072;-79
2022/05/30 16:56:09;;;;;;;4.50;0.85;;;32.30;36.30;;;;;;6221702;23;20024;-78
2022/05/30 16:58:36;;;;;;;2.13;0.98;;;31.50;36.30;;;;;;6221837;23;20302;-77
2022/05/30 17:08:18;;;;;;;2.65;0.73;;;34.10;34.70;;;;;;6129604;23;20012;-78
2022/05/30 17:10:45;;;;;;;3.28;1.00;;;34.60;34.40;;;;;;6130462;23;20035;-77
2022/05/30 17:13:38;;;;;;;3.67;1.08;;;34.80;34.70;;;;;;6130393;23;20006;-78
2022/05/30 17:19:55;;;;;;;3.08;0.70;;;35.00;34.80;;;;;;6158837;23;20033;-78
2022/05/30 17:22:32;;;;;;;1.60;0.55;;;35.20;34.30;;;;;;6161171;23;20140;-79
2022/05/30 17:25:07;;;;;;;2.97;0.70;;;35.50;34.40;;;;;;6162274;23;20270;-79
2022/05/30 17:31:36;;;;;;;1.67;0.50;;;35.90;34.00;;;;;;6161338;23;20020;-79
2022/05/30 17:34:52;;;;;;;2.17;0.80;;;35.90;34.00;;;;;;6150196;23;20255;-80
2022/05/30 17:37:18;;;;;;;2.42;0.80;;;35.70;34.20;;;;;;6136504;23;20006;-80
2022/05/30 17:40:05;;;;;;;1.75;0.77;;;36.10;34.20;;;;;;6136660;23;20219;-81
2022/05/30 17:43:36;;;;;;;2.92;1.08;;;35.10;34.20;;;;;;6199528;23;20051;-81
2022/05/30 17:46:02;;;;;;;2.13;1.00;;;35.20;34.30;;;;;;6196383;23;20241;-80
2022/05/30 17:49:15;;;;;;;4.75;0.82;;;35.10;34.70;;;;;;6223420;23;19996;-79
2022/05/30 17:51:54;;;;;;;2.92;0.93;;;35.20;33.90;;;;;;6086224;23;20016;-80
2022/05/30 17:54:33;;;;;;;3.58;0.93;;;35.10;34.00;;;;;;6197129;23;20008;-79
2022/05/30 18:03:30;;;;;;;2.20;0.90;;;32.60;35.10;;;;;;6198908;22;20016;-79
2022/05/30 18:06:53;;;;;;;3.20;0.90;;;31.30;36.20;;;;;;6199201;23;20019;-81
2022/05/30 18:09:39;;;;;;;2.45;1.15;;;30.00;37.40;;;;;;6197151;23;20024;-79
2022/05/30 18:12:28;;;;;;;3.20;0.82;;;30.00;37.60;;;;;;6197286;23;20005;-80
2022/05/30 18:15:37;;;;;;;1.90;0.70;;;30.10;37.90;;;;;;6197281;23;20011;-80
2022/05/30 18:21:49;;;;;;;3.38;1.10;;;29.60;37.60;;;;;;6209781;23;20009;-80
2022/05/30 18:24:33;;;;;;;2.15;0.88;;;28.50;37.90;;;;;;6169359;23;20005;-81
2022/05/30 18:27:06;;;;;;;3.15;1.05;;;27.30;38.90;;;;;;6171344;23;20012;-80
2022/05/30 18:29:42;;;;;;;2.83;1.02;;;26.10;41.00;;;;;;6224670;23;20020;-80
2022/05/30 18:32:52;;;;;;;2.65;1.00;;;25.30;41.50;;;;;;6194248;23;20024;-80
2022/05/30 18:38:53;;;;;;;3.45;1.30;;;23.20;44.10;;;;;;6226271;23;20012;-80
2022/05/30 18:41:22;;;;;;;;;;;22.30;45.70;;;;;;6224711;23;20005;-81
2022/05/30 18:43:55;;;;;;;3.17;0.95;;;21.60;46.80;;;;;;6231316;23;19923;-81
2022/05/30 18:46:48;;;;;;;4.57;1.10;;;21.00;47.80;;;;;;6199242;23;20067;-82
2022/05/30 18:49:28;;;;;;;3.30;1.10;;;20.70;48.70;;;;;;6173391;23;20175;-80
2022/05/30 18:51:54;;;;;;;3.35;1.15;;;20.30;49.50;;;;;;6224948;23;20001;-82
2022/05/30 18:54:21;;;;;;;3.40;1.20;;;20.20;50.40;;;;;;6223049;23;20001;-80
2022/05/30 18:57:03;;;;;;;2.90;1.20;;;20.00;50.70;;;;;;6172273;23;20051;-79
2022/05/30 19:19:08;;;;;;;2.45;1.33;;;18.40;54.60;;;;;;6107672;23;20939;31
2022/05/30 19:21:34;;;;;;;3.65;1.10;;;18.20;55.90;;;;;;6130659;23;20014;-80
2022/05/30 19:28:33;;;;;;;2.47;1.20;;;17.90;56.10;;;;;;6134104;23;20004;-80
2022/05/30 19:31:07;;;;;;;4.05;1.17;;;17.70;56.50;;;;;;6088284;23;20389;-82
2022/05/30 19:33:35;;;;;;;2.47;1.00;;;17.60;57.10;;;;;;6107348;23;20048;-80
2022/05/30 19:36:10;;;;;;;3.47;1.17;;;17.60;57.20;;;;;;6108011;23;20010;-83
2022/05/30 19:38:42;;;;;;;3.90;1.40;;;17.50;57.20;;;;;;6132271;23;20053;-81
2022/05/30 19:41:43;;;;;;;3.42;1.25;;;17.40;57.60;;;;;;6132762;23;20069;-81
2022/05/30 19:44:41;;;;;;;2.50;1.20;;;17.20;57.70;;;;;;6108618;23;20013;-80
2022/05/30 19:47:10;;;;;;;2.00;1.10;;;17.10;58.40;;;;;;6084019;23;20074;-80
2022/05/30 19:49:36;;;;;;;2.42;1.05;;;17.10;58.80;;;;;;6107289;23;20049;-81
2022/05/30 19:52:39;;;;;;;3.10;1.50;;;17.00;58.80;;;;;;6107762;23;20022;-81
2022/05/30 19:55:39;;;;;;;2.83;1.20;;;17.00;58.90;;;;;;6107887;23;20166;-81
2022/05/30 19:58:07;;;;;;;2.72;1.13;;;16.90;59.30;;;;;;6108336;23;20226;-80
2022/05/30 20:00:34;;;;;;;2.75;1.33;;;16.80;59.40;;;;;;6132042;23;20041;-82
2022/05/30 20:03:12;;;;;;;3.40;1.63;;;16.80;59.70;;;;;;6083717;23;20061;-80
2022/05/30 20:05:44;;;;;;;4.78;1.55;;;16.80;59.90;;;;;;6082923;23;20239;-81
2022/05/30 20:08:10;;;;;;;3.00;1.65;;;16.60;60.50;;;;;;6107517;23;20009;-81
2022/05/30 20:10:36;;;;;;;3.28;1.65;;;16.60;60.70;;;;;;6132200;23;20330;-81
2022/05/30 20:13:09;;;;;;;3.60;1.90;;;16.50;60.70;;;;;;6107660;23;20006;-80
2022/05/30 20:15:39;;;;;;;4.65;1.67;;;16.50;61.20;;;;;;6082537;23;20276;-80
2022/05/30 20:18:11;;;;;;;3.30;1.65;;;16.40;61.00;;;;;;6084270;23;20073;-80
2022/05/30 20:20:36;;;;;;;5.15;2.00;;;16.40;61.00;;;;;;6132907;23;20018;-81
2022/05/30 20:23:02;;;;;;;3.45;2.10;;;16.30;61.50;;;;;;6135221;23;20086;-79
2022/05/30 20:26:08;;;;;;;4.25;1.60;;;16.30;62.00;;;;;;6136206;23;20002;-80
2022/05/30 20:28:39;;;;;;;3.15;1.85;;;16.10;62.30;;;;;;6108223;23;20002;-79
2022/05/30 20:34:49;;;;;;;3.80;1.90;;;16.00;63.00;;;;;;6131829;23;20052;-82
2022/05/30 20:37:20;;;;;;;5.55;2.28;;;15.80;63.30;;;;;;6122400;23;20010;-79
2022/05/30 20:43:39;;;;;;;6.63;2.60;;;15.60;64.40;;;;;;6134692;23;20323;-82
2022/05/30 20:46:06;;;;;;;5.60;2.60;;;15.50;65.00;;;;;;6110185;23;20010;-82
2022/05/30 20:48:41;;;;;;;5.55;2.47;;;15.50;64.70;;;;;;6083460;23;20195;-80
2022/05/30 20:51:07;;;;;;;5.68;3.00;;;15.50;64.80;;;;;;6135587;23;20002;-81
2022/05/30 20:53:41;;;;;;;6.72;2.75;;;15.40;65.80;;;;;;6135221;23;19998;-80
2022/05/30 20:56:07;;;;;;;6.32;2.60;;;15.30;65.80;;;;;;6085352;23;20010;-79
2022/05/30 20:58:33;;;;;;;4.60;2.50;;;15.10;66.60;;;;;;6134114;23;20319;-80
2022/05/30 21:00:59;;;;;;;5.72;3.15;;;15.00;66.20;;;;;;6106998;23;20088;-80
2022/05/30 21:03:24;;;;;;;5.30;2.67;;;15.00;66.70;;;;;;6134329;23;20056;-81
2022/05/30 21:05:50;;;;;;;4.13;2.53;;;14.90;66.60;;;;;;6109934;23;19990;-81
2022/05/30 21:11:43;;;;;;;6.40;3.22;;;14.70;67.90;;;;;;6017345;23;20010;-81
2022/05/30 21:14:09;;;;;;;5.07;2.70;;;14.60;68.40;;;;;;6017782;23;20008;-79
2022/05/30 21:16:49;;;;;;;6.20;2.85;;;14.50;68.20;;;;;;6015911;23;20203;-79
2022/05/30 21:19:51;;;;;;;6.70;3.42;;;14.40;68.60;;;;;;6016827;23;20426;-80
2022/05/30 21:22:22;;;;;;;6.10;2.92;;;14.50;68.00;;;;;;5993580;23;20018;-79
2022/05/30 21:24:48;;;;;;;5.63;3.20;;;14.50;68.00;;;;;;6017443;23;20238;-80
2022/05/30 21:27:14;;;;;;;6.05;3.85;;;14.50;69.00;;;;;;6017017;23;20071;-80
2022/05/30 21:29:40;;;;;;;5.38;2.67;;;14.50;69.60;;;;;;6017113;23;20014;-80
2022/05/30 21:32:43;;;;;;;4.88;2.70;;;14.50;69.00;;;;;;6016942;23;20352;-80
2022/05/30 21:35:43;;;;;;;6.00;3.25;;;14.40;69.30;;;;;;6017301;23;20011;-80
2022/05/30 21:38:10;;;;;;;5.38;3.08;;;14.30;69.60;;;;;;6017312;23;20012;-80
2022/05/30 21:40:36;;;;;;;5.20;3.30;;;14.20;70.30;;;;;;5992942;23;20563;-81
2022/05/30 21:43:01;;;;;;;6.43;3.08;;;14.00;70.90;;;;;;5993917;23;20067;-81
2022/05/30 21:45:27;;;;;;;5.30;2.85;;;13.80;71.50;;;;;;6016040;23;20034;-81
2022/05/30 21:47:56;;;;;;;5.10;2.10;;;13.70;71.60;;;;;;6057268;23;20005;-80
2022/05/30 21:50:23;;;;;;;;;;;13.60;71.50;;;;;;6109402;23;20046;-81
2022/05/30 21:52:49;;;;;;;5.68;2.35;;;13.60;72.10;;;;;;6109695;23;19904;-80
2022/05/30 21:55:17;;;;;;;6.43;2.67;;;13.60;71.60;;;;;;6135485;23;20022;-81
2022/05/30 21:57:54;;;;;;;4.05;2.25;;;13.60;71.80;;;;;;6108952;23;20069;-80
2022/05/30 22:00:38;;;;;;;4.33;2.47;;;13.50;72.30;;;;;;6108318;23;20045;-81
2022/05/30 22:03:18;;;;;;;4.50;2.75;;;13.50;72.70;;;;;;6108506;23;20010;-79
2022/05/30 22:05:48;;;;;;;5.28;2.20;;;13.50;73.00;;;;;;6134602;23;20002;-81
2022/05/30 22:08:30;;;;;;;5.57;2.53;;;13.50;72.50;;;;;;6085658;23;20006;-80
2022/05/30 22:14:25;;;;;;;5.00;2.28;;;13.50;73.00;;;;;;6135656;23;20259;-81
2022/05/30 22:17:16;;;;;;;4.55;2.10;;;13.40;73.40;;;;;;6109596;23;20018;-80
2022/05/30 22:19:42;;;;;;;3.45;1.73;;;13.30;73.40;;;;;;6109464;23;20002;-81
2022/05/30 22:22:12;;;;;;;5.28;2.00;;;13.30;74.20;;;;;;6135797;23;20017;-83
2022/05/30 22:24:38;;;;;;;3.67;1.85;;;13.30;74.00;;;;;;6135146;23;20280;-80
2022/05/30 22:27:05;;;;;;;3.17;1.75;;;13.20;74.60;;;;;;6135851;23;20002;-81
2022/05/30 22:29:31;;;;;;;3.83;1.70;;;13.10;74.40;;;;;;6135537;23;20002;-81
2022/05/30 22:32:11;;;;;;;5.38;1.90;;;13.10;74.80;;;;;;6110159;23;20120;-80
2022/05/30 22:34:37;;;;;;;3.20;1.85;;;13.10;74.90;;;;;;6137345;23;20005;-79
2022/05/30 22:37:04;;;;;;;4.80;1.73;;;13.10;74.90;;;;;;6112025;23;20275;-81
2022/05/30 22:40:13;;;;;;;4.30;1.95;;;13.00;75.70;;;;;;6085513;23;20010;-80
2022/05/30 22:42:39;;;;;;;;;;;13.00;75.70;;;;;;6109722;23;20009;-79
2022/05/30 22:45:07;;;;;;;3.40;1.70;;;12.90;76.30;;;;;;6108951;23;20246;-80
2022/05/30 22:47:33;;;;;;;3.63;2.00;;;12.90;76.10;;;;;;6108322;23;20208;-80
2022/05/30 22:50:17;;;;;;;5.03;2.03;;;12.90;75.70;;;;;;6136705;23;20048;-80
2022/05/30 22:53:17;;;;;;;4.05;1.70;;;12.90;76.00;;;;;;6137728;23;20013;-79
2022/05/30 22:55:43;;;;;;;4.32;2.00;;;12.90;75.50;;;;;;6136806;23;20065;-80
2022/05/30 22:58:10;;;;;;;4.20;2.08;;;12.80;76.60;;;;;;6110130;23;20014;-79
2022/05/30 23:00:40;;;;;;;4.65;2.30;;;12.70;77.10;;;;;;6108205;23;20624;-79
